Time;durP1;ratioP1;P1;durP2;ratioP2;P2;SDS_P1;SDS_P2;PMS_P1;PMS_P2;Temp;Humidity;BMP_temperature;BMP_pressure;BME280_temperature;BME280_humidity;BME280_pressure;Samples;Min_cycle;Max_cycle;Signal;HPM_P1;HPM_P2
2023/06/08 00:01:02;;;;;;;;;15.67;14.00;;;;;21.56;44.26;101086.72;4980164;28;45317;-74
2023/06/08 00:03:27;;;;;;;;;13.00;13.00;;;;;21.49;44.56;101069.66;4981907;28;45754;-75
2023/06/08 00:05:53;;;;;;;;;12.33;12.33;;;;;21.12;44.55;101003.44;4977686;28;45496;-75
2023/06/08 00:08:18;;;;;;;;;15.00;15.00;;;;;21.39;44.82;101050.28;4979907;28;45259;-74
2023/06/08 00:10:45;;;;;;;;;15.00;14.00;;;;;21.47;44.81;101063.63;4962194;28;45282;-76
2023/06/08 00:13:12;;;;;;;;;16.00;15.00;;;;;21.35;44.84;101054.44;4979637;28;45387;-75
2023/06/08 00:15:39;;;;;;;;;13.67;13.67;;;;;21.38;45.05;101062.13;4978620;28;45548;-75
2023/06/08 00:18:06;;;;;;;;;13.00;13.00;;;;;21.33;45.48;101056.53;4985127;28;45372;-75
2023/06/08 00:20:33;;;;;;;;;16.67;16.67;;;;;21.13;45.55;101020.50;4976705;28;45468;-74
2023/06/08 00:22:59;;;;;;;;;13.67;11.33;;;;;20.72;45.65;100958.47;4977900;28;46583;-74
2023/06/08 00:25:24;;;;;;;;;17.33;16.00;;;;;21.13;45.85;101025.91;4979339;28;45453;-75
2023/06/08 00:27:50;;;;;;;;;11.33;11.33;;;;;21.14;45.94;101041.09;4978198;28;45634;-75
2023/06/08 00:30:15;;;;;;;;;23.00;19.67;;;;;21.16;46.27;101052.53;4961871;28;45430;-75
2023/06/08 00:32:41;;;;;;;;;18.33;16.00;;;;;21.10;46.35;101043.38;4979463;28;48091;-75
2023/06/08 00:35:07;;;;;;;;;17.67;15.67;;;;;21.12;46.14;101038.59;4979528;28;45565;-76
2023/06/08 00:37:32;;;;;;;;;17.00;15.33;;;;;20.49;46.25;100931.84;4958691;28;45232;-75
2023/06/08 00:39:57;;;;;;;;;15.00;14.67;;;;;21.16;46.75;101031.72;4966168;28;45486;-76
2023/06/08 00:42:23;;;;;;;;;18.67;18.67;;;;;21.17;47.31;101038.78;4978648;28;45839;-74
2023/06/08 00:44:48;;;;;;;;;20.67;17.67;;;;;21.06;47.01;101025.06;4958406;28;51182;-75
2023/06/08 00:47:13;;;;;;;;;17.00;15.67;;;;;21.18;46.60;101036.91;4974873;28;46660;-74
2023/06/08 00:49:39;;;;;;;;;22.67;20.67;;;;;21.16;46.84;101014.66;4945519;28;45614;-73
2023/06/08 00:52:07;;;;;;;;;17.67;17.00;;;;;21.09;47.12;101013.84;4977112;28;46787;-74
2023/06/08 00:54:33;;;;;;;;;22.33;21.33;;;;;21.16;47.16;101031.72;4961524;28;45437;-74
2023/06/08 00:57:02;;;;;;;;;15.00;14.67;;;;;21.18;47.29;101029.63;4969135;28;45428;-74
2023/06/08 00:59:32;;;;;;;;;19.67;19.67;;;;;21.19;47.17;101035.88;4968183;28;45692;-74
2023/06/08 01:01:58;;;;;;;;;17.00;16.33;;;;;21.12;47.33;101019.66;4973191;28;46597;-75
2023/06/08 01:04:23;;;;;;;;;15.67;15.67;;;;;21.04;47.52;101016.34;4960866;28;45671;-76
2023/06/08 01:06:53;;;;;;;;;15.67;15.67;;;;;20.91;47.24;100999.03;4978543;28;45386;-75
2023/06/08 01:09:42;;;;;;;;;18.00;18.00;;;;;21.01;47.51;101006.75;4962604;28;45599;-75
2023/06/08 01:12:27;;;;;;;;;15.00;14.33;;;;;21.05;47.37;101007.19;4982167;28;45335;-75
2023/06/08 01:15:13;;;;;;;;;14.33;13.67;;;;;21.13;47.51;101031.31;4979125;28;45481;-75
2023/06/08 01:17:40;;;;;;;;;14.00;14.00;;;;;21.13;47.41;101020.50;4959263;28;45550;-74
2023/06/08 01:20:44;;;;;;;;;17.00;14.33;;;;;21.17;47.49;101027.16;4959388;28;45530;-73
2023/06/08 01:23:37;;;;;;;;;17.00;16.33;;;;;21.16;47.49;101022.78;4943186;28;47403;-74
2023/06/08 01:26:04;;;;;;;;;20.00;19.00;;;;;21.13;47.12;101009.69;4975602;28;45428;-74
2023/06/08 01:28:30;;;;;;;;;22.33;20.33;;;;;20.86;47.21;100971.81;4978294;28;45353;-75
2023/06/08 01:30:57;;;;;;;;;19.33;18.00;;;;;21.13;47.26;101017.78;4957482;28;45436;-73
2023/06/08 01:33:25;;;;;;;;;17.67;16.00;;;;;21.20;47.05;101027.56;4993489;28;46586;-75
2023/06/08 01:36:02;;;;;;;;;17.33;17.33;;;;;21.08;47.43;101009.47;4993807;28;45278;-73
2023/06/08 01:38:51;;;;;;;;;18.00;18.00;;;;;21.18;47.58;101023.41;4960622;28;45294;-74
2023/06/08 01:41:22;;;;;;;;;16.67;15.67;;;;;21.12;47.51;101014.25;4969070;28;45586;-74
2023/06/08 01:43:50;;;;;;;;;16.67;16.67;;;;;21.18;47.55;101031.50;4978575;28;47056;-74
2023/06/08 01:46:18;;;;;;;;;15.67;15.67;;;;;21.12;47.75;101021.53;4976733;28;46342;-74
2023/06/08 01:48:46;;;;;;;;;17.33;17.33;;;;;21.07;48.19;101024.84;4960551;28;45434;-75
2023/06/08 01:51:13;;;;;;;;;21.33;19.67;;;;;21.04;48.57;101019.03;4977708;28;45366;-74
2023/06/08 01:53:39;;;;;;;;;19.33;19.33;;;;;20.99;48.54;101035.03;4977393;28;45741;-73
2023/06/08 01:56:04;;;;;;;;;19.00;18.00;;;;;20.90;48.83;101026.28;4977445;28;45449;-74
2023/06/08 01:58:30;;;;;;;;;21.00;19.67;;;;;20.83;48.62;101020.88;4978109;28;45324;-75
2023/06/08 02:00:55;;;;;;;;;22.33;21.33;;;;;20.69;48.92;100999.41;4977830;28;45176;-76
2023/06/08 02:03:20;;;;;;;;;25.33;19.67;;;;;20.85;49.09;101031.47;4977082;28;45791;-75
2023/06/08 02:05:46;;;;;;;;;20.67;18.67;;;;;20.75;49.14;101021.03;4977793;28;45506;-76
2023/06/08 02:08:11;;;;;;;;;21.00;21.00;;;;;20.61;49.34;101016.63;4978779;28;45464;-77
2023/06/08 02:10:37;;;;;;;;;23.00;21.33;;;;;20.70;49.27;101042.44;4979483;28;45605;-75
2023/06/08 02:13:02;;;;;;;;;19.33;19.33;;;;;20.59;49.65;101022.22;4977987;28;46437;-74
2023/06/08 02:15:27;;;;;;;;;21.33;19.67;;;;;20.62;49.94;101029.97;4960035;28;45433;-77
2023/06/08 02:17:53;;;;;;;;;22.00;22.00;;;;;20.58;50.02;101038.66;4977036;28;45407;-76
2023/06/08 02:20:18;;;;;;;;;14.67;14.67;;;;;20.41;49.95;101013.03;4979381;28;45841;-76
2023/06/08 02:22:45;;;;;;;;;21.00;19.67;;;;;20.61;49.96;101043.66;4980257;28;45499;-76
2023/06/08 02:25:10;;;;;;;;;21.00;21.00;;;;;20.33;49.76;101006.75;4959744;28;45597;-75
2023/06/08 02:27:36;;;;;;;;;28.33;24.33;;;;;20.48;50.16;101030.09;4962002;28;45424;-74
2023/06/08 02:30:07;;;;;;;;;19.00;19.00;;;;;20.36;50.99;101033.34;4963958;28;45238;-75
2023/06/08 02:32:32;;;;;;;;;24.33;23.00;;;;;20.33;50.86;101041.00;4964193;28;47488;-76
2023/06/08 02:35:00;;;;;;;;;24.00;23.00;;;;;20.35;50.75;101033.53;4978519;28;45480;-74
2023/06/08 02:37:25;;;;;;;;;25.00;25.00;;;;;20.30;51.30;101028.75;4960185;28;45505;-73
2023/06/08 02:39:51;;;;;;;;;22.67;22.67;;;;;19.85;51.62;100970.81;4977583;28;45520;-74
2023/06/08 02:42:18;;;;;;;;;21.33;19.33;;;;;20.22;51.63;101025.38;4972957;28;62062;-75
2023/06/08 02:44:44;;;;;;;;;23.00;23.00;;;;;20.14;51.96;101015.59;4945731;28;45579;-75
2023/06/08 02:47:10;;;;;;;;;24.33;21.00;;;;;20.15;52.09;101022.66;4976205;28;45301;-75
2023/06/08 02:49:36;;;;;;;;;28.00;25.00;;;;;19.98;52.33;101002.41;4976196;28;45234;-77
2023/06/08 02:52:01;;;;;;;;;24.00;21.33;;;;;20.01;52.74;101026.28;4977656;28;46359;-75
2023/06/08 02:54:27;;;;;;;;;28.67;27.00;;;;;19.95;52.85;101019.00;4976938;28;45350;-76
2023/06/08 02:56:52;;;;;;;;;24.67;23.33;;;;;19.72;52.90;100998.53;4976602;28;56334;-74
2023/06/08 02:59:18;;;;;;;;;25.33;25.33;;;;;19.84;52.91;101016.88;4978050;28;45349;-75
2023/06/08 03:01:52;;;;;;;;;21.00;21.00;;;;;19.73;52.72;101002.91;4977286;28;46444;-74
2023/06/08 03:04:18;;;;;;;;;23.00;21.00;;;;;19.84;53.07;101031.19;4950734;28;45974;-74
2023/06/08 03:06:43;;;;;;;;;25.67;25.00;;;;;19.79;52.72;101016.63;4965559;28;45483;-76
2023/06/08 03:09:09;;;;;;;;;26.00;24.00;;;;;19.77;52.80;101002.50;4977093;28;45491;-74
2023/06/08 03:11:34;;;;;;;;;24.33;23.67;;;;;19.90;52.77;101027.69;4976113;28;46100;-75
2023/06/08 03:14:00;;;;;;;;;23.33;21.33;;;;;19.88;52.84;101015.44;4976728;28;45408;-75
2023/06/08 03:16:26;;;;;;;;;23.67;23.67;;;;;19.53;52.81;100947.13;4976966;28;45478;-78
2023/06/08 03:18:52;;;;;;;;;27.67;24.67;;;;;19.70;52.56;100959.31;4985165;28;45370;-75
2023/06/08 03:21:18;;;;;;;;;25.00;23.33;;;;;20.06;52.28;101018.47;4995104;28;46340;-76
2023/06/08 03:23:46;;;;;;;;;34.67;30.33;;;;;20.01;52.41;101015.50;4958983;28;46267;-76
2023/06/08 03:26:11;;;;;;;;;26.33;25.33;;;;;19.95;52.67;101021.69;4959902;28;45328;-75
2023/06/08 03:28:37;;;;;;;;;32.67;30.00;;;;;19.88;52.26;101010.88;4976552;28;45654;-76
2023/06/08 03:31:02;;;;;;;;;28.67;27.33;;;;;19.93;52.39;101021.06;4959974;28;46914;-75
2023/06/08 03:33:28;;;;;;;;;29.67;28.33;;;;;19.91;52.38;101015.03;4978101;28;45392;-77
2023/06/08 03:35:53;;;;;;;;;29.33;26.00;;;;;19.85;52.27;101005.06;4977447;28;45547;-73
2023/06/08 03:38:19;;;;;;;;;34.67;32.00;;;;;19.90;52.56;101016.06;4959674;28;45556;-74
2023/06/08 03:40:44;;;;;;;;;29.67;26.67;;;;;19.68;52.35;100988.34;4977074;28;46890;-75
2023/06/08 03:43:10;;;;;;;;;20.00;20.00;;;;;19.68;52.77;101001.81;4962665;28;45458;-74
2023/06/08 03:45:35;;;;;;;;;24.33;23.00;;;;;18.45;52.23;100819.84;4960279;28;45405;-75
2023/06/08 03:48:02;;;;;;;;;28.67;23.67;;;;;19.47;52.46;100986.50;4977536;28;45545;-74
2023/06/08 03:50:30;;;;;;;;;28.00;25.33;;;;;19.35;52.41;100950.31;4978754;28;45755;-75
2023/06/08 03:52:56;;;;;;;;;28.33;26.00;;;;;19.50;52.48;100975.31;4979198;28;45457;-75
2023/06/08 03:55:21;;;;;;;;;25.33;24.00;;;;;19.64;52.40;101011.34;4978244;28;45371;-75
2023/06/08 03:57:47;;;;;;;;;17.33;15.67;;;;;19.29;52.49;100961.88;4963591;28;45561;-73
2023/06/08 04:00:13;;;;;;;;;27.67;22.00;;;;;19.53;52.39;100995.66;4980582;28;45694;-75
2023/06/08 04:02:38;;;;;;;;;22.67;21.33;;;;;19.52;52.65;101004.78;4979951;28;45354;-74
2023/06/08 04:05:06;;;;;;;;;24.67;22.67;;;;;19.46;52.64;100990.22;4979211;28;45510;-74
2023/06/08 04:07:34;;;;;;;;;29.33;25.00;;;;;19.49;52.98;101003.31;4979666;28;45418;-74
2023/06/08 04:10:02;;;;;;;;;25.00;22.00;;;;;19.42;52.93;101010.50;4979158;28;46536;-73
2023/06/08 04:12:28;;;;;;;;;25.33;22.33;;;;;19.05;53.15;100949.66;4970130;28;45480;-74
2023/06/08 04:14:53;;;;;;;;;24.67;24.67;;;;;19.27;53.20;100980.97;4979236;28;46159;-75
2023/06/08 04:17:18;;;;;;;;;27.67;24.67;;;;;19.33;53.54;100990.13;4954722;28;45360;-75
2023/06/08 04:19:44;;;;;;;;;23.33;23.00;;;;;19.32;53.12;101002.75;4977006;28;49477;-76
2023/06/08 04:22:09;;;;;;;;;24.00;22.67;;;;;19.19;53.28;100973.00;4979211;28;45404;-74
2023/06/08 04:24:36;;;;;;;;;26.67;23.33;;;;;19.11;53.32;100955.09;4979251;28;45373;-75
2023/06/08 04:27:02;;;;;;;;;23.33;22.33;;;;;19.04;53.11;100935.38;4979636;28;45536;-76
2023/06/08 04:29:27;;;;;;;;;24.33;20.33;;;;;19.40;53.15;100999.06;4982325;28;46833;-76
2023/06/08 04:31:52;;;;;;;;;31.33;26.33;;;;;19.28;53.39;100974.53;4979176;28;46902;-75
2023/06/08 04:34:18;;;;;;;;;30.00;25.33;;;;;19.37;53.31;100983.31;4977963;28;45493;-75
2023/06/08 04:36:43;;;;;;;;;23.67;22.67;;;;;19.44;53.22;100998.53;4976373;28;45232;-76
2023/06/08 04:39:09;;;;;;;;;29.67;24.33;;;;;19.44;53.45;100997.69;4960638;28;47323;-74
2023/06/08 04:41:37;;;;;;;;;22.33;20.67;;;;;19.50;53.42;101001.44;4970546;28;46605;-75
2023/06/08 04:44:03;;;;;;;;;26.67;24.67;;;;;19.46;53.61;100995.63;4979245;28;45243;-75
2023/06/08 04:46:30;;;;;;;;;29.00;28.00;;;;;19.54;52.99;101002.75;4977233;28;45551;-76
2023/06/08 04:48:56;;;;;;;;;23.67;23.33;;;;;19.15;53.32;100937.50;4978725;28;46300;-76
2023/06/08 04:51:23;;;;;;;;;31.33;26.67;;;;;19.50;53.27;100996.88;4962329;28;46246;-76
2023/06/08 04:53:50;;;;;;;;;23.67;23.33;;;;;19.46;53.38;100982.13;4981248;28;45318;-74
2023/06/08 04:56:18;;;;;;;;;27.00;23.00;;;;;19.49;53.34;100989.84;4979685;28;45765;-76
2023/06/08 04:58:45;;;;;;;;;24.00;23.00;;;;;19.54;53.17;100989.28;4962419;28;47920;-76
2023/06/08 05:01:11;;;;;;;;;19.67;19.67;;;;;19.56;53.60;101006.91;4977973;28;45364;-76
2023/06/08 05:03:36;;;;;;;;;28.00;28.00;;;;;19.50;53.51;100996.88;4963767;28;45457;-76
2023/06/08 05:06:02;;;;;;;;;28.67;26.00;;;;;19.06;54.12;100927.09;4979328;28;45378;-75
2023/06/08 05:08:27;;;;;;;;;27.33;26.00;;;;;19.45;54.10;100994.78;4978548;28;46186;-75
2023/06/08 05:10:52;;;;;;;;;31.00;27.00;;;;;19.44;54.54;101003.06;4978802;28;45318;-75
2023/06/08 05:13:18;;;;;;;;;27.67;25.67;;;;;19.43;54.23;101006.81;4986631;28;45469;-76
2023/06/08 05:15:43;;;;;;;;;35.33;30.33;;;;;19.46;54.24;101006.41;4998247;28;45318;-76
2023/06/08 05:18:09;;;;;;;;;26.67;25.33;;;;;19.21;54.38;100948.53;4969256;28;48116;-75
2023/06/08 05:20:34;;;;;;;;;36.33;31.33;;;;;19.55;54.45;101007.94;4979102;28;45513;-75
2023/06/08 05:23:00;;;;;;;;;36.33;31.33;;;;;19.52;54.75;101016.41;4981513;28;45543;-76
2023/06/08 05:25:31;;;;;;;;;33.67;30.33;;;;;19.48;54.85;101008.91;4961984;28;45581;-76
2023/06/08 05:27:57;;;;;;;;;30.00;28.67;;;;;19.41;55.13;100993.50;4979859;28;46428;-74
2023/06/08 05:30:23;;;;;;;;;35.67;31.00;;;;;19.54;55.10;101008.16;4976951;28;45453;-77
2023/06/08 05:32:48;;;;;;;;;31.00;26.67;;;;;19.55;54.73;101010.66;4960230;28;45283;-74
2023/06/08 05:35:13;;;;;;;;;28.00;26.67;;;;;19.49;54.89;100981.75;4962118;28;49026;-77
2023/06/08 05:37:38;;;;;;;;;31.00;30.00;;;;;19.62;55.11;101006.16;4956977;28;49303;-75
2023/06/08 05:40:05;;;;;;;;;31.33;29.67;;;;;19.67;55.02;101000.16;4958646;28;45472;-75
2023/06/08 05:42:30;;;;;;;;;28.67;28.67;;;;;19.75;54.90;101006.22;4963350;28;45456;-75
2023/06/08 05:44:55;;;;;;;;;33.00;31.33;;;;;19.72;55.23;100984.22;4972798;28;53335;-76
2023/06/08 05:47:21;;;;;;;;;32.67;31.33;;;;;19.88;54.91;101004.66;4960588;28;66435;-75
2023/06/08 05:49:46;;;;;;;;;35.33;33.33;;;;;19.96;54.89;100996.38;4978786;28;47867;-75
2023/06/08 05:52:11;;;;;;;;;39.00;34.33;;;;;20.03;55.10;100999.97;4967672;28;45343;-77
2023/06/08 05:54:36;;;;;;;;;32.67;30.67;;;;;20.16;55.00;100991.91;4979557;28;45560;-74
2023/06/08 05:57:02;;;;;;;;;33.00;31.67;;;;;20.00;54.65;100959.84;4960846;28;47578;-76
2023/06/08 05:59:27;;;;;;;;;37.67;34.33;;;;;19.38;54.75;100855.53;4976846;28;45557;-77
2023/06/08 06:01:53;;;;;;;;;32.33;31.00;;;;;20.43;54.37;100990.22;4982167;28;45515;-79
2023/06/08 06:04:19;;;;;;;;;38.00;32.00;;;;;20.77;54.09;100986.53;4980696;28;45503;-75
2023/06/08 06:06:44;;;;;;;;;38.00;34.00;;;;;21.09;52.74;100986.81;4979329;28;45818;-79
2023/06/08 06:09:11;;;;;;;;;36.33;34.00;;;;;21.44;51.89;100980.19;4975299;28;45492;-77
2023/06/08 06:11:37;;;;;;;;;37.33;33.00;;;;;21.46;50.98;100912.34;4972468;28;46564;-76
2023/06/08 06:14:02;;;;;;;;;38.67;33.67;;;;;22.22;50.38;100982.06;4958660;28;45359;-77
2023/06/08 06:16:28;;;;;;;;;33.00;31.67;;;;;22.31;49.71;100937.47;4977218;28;45634;-78
2023/06/08 06:18:53;;;;;;;;;35.33;33.67;;;;;22.98;48.58;100976.69;4978451;28;45469;-77
2023/06/08 06:21:18;;;;;;;;;37.00;34.00;;;;;23.15;47.53;100966.13;4972769;28;45401;-78
2023/06/08 06:23:46;;;;;;;;;40.33;35.67;;;;;23.51;47.26;100973.53;4969214;28;45550;-80
2023/06/08 06:26:12;;;;;;;;;28.67;26.33;;;;;23.79;46.96;100968.47;4965851;28;45785;-77
2023/06/08 06:28:40;;;;;;;;;36.67;33.33;;;;;23.86;46.17;100935.81;4967954;28;45571;-77
2023/06/08 06:31:06;;;;;;;;;42.67;33.33;;;;;24.31;45.27;100954.50;4976257;28;45646;-77
2023/06/08 06:33:32;;;;;;;;;37.00;33.33;;;;;24.55;44.68;100957.09;4968363;28;45520;-79
2023/06/08 06:35:57;;;;;;;;;43.33;37.00;;;;;24.82;44.00;100951.25;4977445;28;45534;-78
2023/06/08 06:38:24;;;;;;;;;36.33;30.00;;;;;25.24;43.65;100971.13;4968458;28;45401;-77
2023/06/08 06:40:52;;;;;;;;;43.33;34.33;;;;;25.59;43.03;100973.84;4957964;28;45376;-78
2023/06/08 06:43:17;;;;;;;;;40.33;36.67;;;;;25.95;42.57;100974.66;4963702;28;46020;-78
2023/06/08 06:45:43;;;;;;;;;39.00;34.00;;;;;26.22;41.75;100962.13;4974340;28;46345;-77
2023/06/08 06:48:09;;;;;;;;;38.00;33.00;;;;;26.60;41.33;100964.28;4977611;28;45337;-77
2023/06/08 06:50:34;;;;;;;;;36.00;32.33;;;;;26.90;40.56;100963.19;4978562;28;45326;-74
2023/06/08 06:53:00;;;;;;;;;38.33;33.67;;;;;27.04;40.81;100956.38;4976872;28;45321;-74
2023/06/08 06:55:25;;;;;;;;;37.00;34.00;;;;;27.05;40.68;100954.47;4974629;28;46555;-75
2023/06/08 06:57:52;;;;;;;;;37.33;33.67;;;;;27.01;40.33;100959.56;4966688;28;45461;-76
2023/06/08 07:00:19;;;;;;;;;36.67;33.00;;;;;26.71;40.96;100962.56;4960886;28;45414;-76
2023/06/08 07:02:45;;;;;;;;;36.33;33.67;;;;;26.56;41.30;100962.28;4958711;28;45506;-77
2023/06/08 07:05:11;;;;;;;;;32.67;30.67;;;;;26.29;41.26;100962.03;4961781;28;48325;-76
2023/06/08 07:07:36;;;;;;;;;37.00;34.00;;;;;26.04;41.97;100975.97;4958525;28;45710;-76
2023/06/08 07:10:02;;;;;;;;;40.33;34.67;;;;;25.84;42.52;100965.47;4975291;28;45528;-77
2023/06/08 07:12:30;;;;;;;;;43.00;36.33;;;;;25.51;43.30;100944.25;4980033;28;45469;-76
2023/06/08 07:14:55;;;;;;;;;42.00;36.67;;;;;25.26;42.83;100913.75;4963421;28;47703;-77
2023/06/08 07:17:20;;;;;;;;;43.67;36.00;;;;;25.53;43.13;100963.91;4958404;28;45181;-77
2023/06/08 07:19:47;;;;;;;;;38.33;33.33;;;;;25.50;43.35;100966.28;4957320;28;45354;-79
2023/06/08 07:22:12;;;;;;;;;36.00;34.00;;;;;25.45;43.75;100961.56;4975944;28;45563;-76
2023/06/08 07:24:38;;;;;;;;;36.67;33.00;;;;;25.29;43.68;100948.66;4970732;28;46685;-77
2023/06/08 07:27:05;;;;;;;;;36.00;33.33;;;;;25.36;43.88;100962.97;4981447;28;45175;-78
2023/06/08 07:29:31;;;;;;;;;43.00;36.33;;;;;25.28;43.90;100938.81;4961463;28;45562;-78
2023/06/08 07:31:56;;;;;;;;;37.33;34.33;;;;;25.31;43.75;100919.31;4962753;28;45524;-76
2023/06/08 07:34:22;;;;;;;;;38.00;34.33;;;;;25.42;43.97;100940.22;4973766;28;45231;-77
2023/06/08 07:36:47;;;;;;;;;33.67;32.00;;;;;25.55;43.70;100956.31;4978454;28;45584;-76
2023/06/08 07:39:13;;;;;;;;;44.00;37.33;;;;;25.22;43.68;100907.91;4954558;28;45617;-76
2023/06/08 07:41:38;;;;;;;;;39.67;34.00;;;;;25.36;44.05;100950.19;4979307;28;45529;-77
2023/06/08 07:44:03;;;;;;;;;42.67;36.00;;;;;25.37;44.11;100951.81;4962755;28;47466;-76
2023/06/08 07:46:30;;;;;;;;;38.67;33.67;;;;;25.39;43.99;100951.59;4981501;28;45486;-76
2023/06/08 07:48:55;;;;;;;;;35.00;32.67;;;;;25.41;44.53;100952.19;4978396;28;45429;-77
2023/06/08 07:51:21;;;;;;;;;42.33;33.67;;;;;25.50;43.99;100955.41;4961277;28;45888;-76
2023/06/08 07:53:46;;;;;;;;;31.33;31.00;;;;;25.53;43.88;100955.75;4962475;28;47920;-76
2023/06/08 07:56:12;;;;;;;;;39.67;33.67;;;;;25.57;44.14;100943.31;4994760;28;45484;-75
2023/06/08 07:58:37;;;;;;;;;36.67;33.67;;;;;25.64;43.72;100949.47;4973889;28;45500;-75
2023/06/08 08:01:03;;;;;;;;;36.67;34.33;;;;;25.59;44.26;100930.28;4973990;28;45481;-77
2023/06/08 08:03:28;;;;;;;;;39.00;34.33;;;;;25.63;43.85;100934.19;4981609;28;46337;-76
2023/06/08 08:05:54;;;;;;;;;34.67;31.33;;;;;25.68;43.81;100950.69;4974868;28;45484;-81
2023/06/08 08:08:20;;;;;;;;;36.33;33.33;;;;;25.52;44.38;100912.41;4976601;28;45389;-75
2023/06/08 08:10:45;;;;;;;;;34.00;31.00;;;;;25.68;43.34;100928.06;4978521;28;45399;-76
2023/06/08 08:13:12;;;;;;;;;38.00;34.33;;;;;25.81;43.22;100946.03;4960001;28;47395;-76
2023/06/08 08:15:40;;;;;;;;;39.00;33.33;;;;;25.81;43.99;100946.03;4962001;28;45503;-78
2023/06/08 08:18:06;;;;;;;;;42.33;36.00;;;;;25.36;43.75;100884.03;4964208;28;45661;-77
2023/06/08 08:20:31;;;;;;;;;38.00;34.00;;;;;25.59;43.98;100927.56;4978928;28;45326;-79
2023/06/08 08:22:57;;;;;;;;;40.33;34.33;;;;;25.66;44.13;100932.91;4980171;28;46291;-78
2023/06/08 08:25:22;;;;;;;;;33.67;31.00;;;;;25.63;43.80;100923.31;4976416;28;45601;-76
2023/06/08 08:27:47;;;;;;;;;36.67;33.00;;;;;25.35;43.82;100871.47;4955880;28;45832;-74
2023/06/08 08:30:13;;;;;;;;;32.67;31.33;;;;;25.87;44.08;100937.75;4956080;28;45577;-74
2023/06/08 08:32:39;;;;;;;;;31.67;30.33;;;;;25.86;43.55;100924.38;4969643;28;47555;-73
2023/06/08 08:35:05;;;;;;;;;34.33;28.33;;;;;25.83;43.95;100903.03;4951762;28;45255;-76
2023/06/08 08:37:31;;;;;;;;;35.33;32.67;;;;;25.94;43.78;100915.81;4976391;28;45513;-77
2023/06/08 08:39:57;;;;;;;;;31.67;30.33;;;;;26.01;43.40;100932.81;4979645;28;45562;-75
2023/06/08 08:42:26;;;;;;;;;38.00;33.33;;;;;25.95;43.60;100917.47;4961432;28;46635;-76
2023/06/08 08:44:56;;;;;;;;;27.00;25.67;;;;;26.02;43.84;100923.59;4978043;28;45488;-74
2023/06/08 08:47:23;;;;;;;;;36.33;32.67;;;;;26.01;43.60;100921.94;4952950;28;45248;-74
2023/06/08 08:49:58;;;;;;;;;35.33;31.00;;;;;25.96;43.49;100913.66;4958990;28;45723;-76
2023/06/08 08:52:29;;;;;;;;;38.67;33.67;;;;;25.96;43.59;100924.56;4975734;28;46095;-75
2023/06/08 08:54:57;;;;;;;;;33.33;31.00;;;;;25.92;43.70;100909.78;4960971;28;46028;-75
2023/06/08 08:57:27;;;;;;;;;35.00;30.33;;;;;25.97;43.67;100907.13;4961387;28;45291;-74
2023/06/08 08:59:53;;;;;;;;;33.67;31.33;;;;;26.02;43.34;100904.50;4973253;28;45547;-75
2023/06/08 09:02:19;;;;;;;;;32.00;30.00;;;;;26.01;43.83;100908.31;4974835;28;47358;-76
2023/06/08 09:04:44;;;;;;;;;30.00;30.00;;;;;26.08;43.30;100917.19;4977959;28;45283;-77
2023/06/08 09:07:11;;;;;;;;;32.33;30.67;;;;;25.91;43.61;100895.31;4959845;28;45599;-74
2023/06/08 09:09:36;;;;;;;;;26.33;25.00;;;;;25.91;43.23;100886.31;4977686;28;45480;-74
2023/06/08 09:12:04;;;;;;;;;37.67;34.33;;;;;26.09;43.32;100905.22;4957618;28;47516;-76
2023/06/08 09:14:30;;;;;;;;;37.00;33.00;;;;;26.05;42.88;100901.31;4959313;28;45441;-76
2023/06/08 09:16:58;;;;;;;;;31.67;30.00;;;;;25.78;43.13;100843.84;4977914;28;46372;-74
2023/06/08 09:19:24;;;;;;;;;35.67;31.33;;;;;25.83;43.27;100845.81;4971518;28;45327;-74
2023/06/08 09:21:49;;;;;;;;;32.33;30.00;;;;;26.17;43.02;100893.91;4960641;28;47248;-74
2023/06/08 09:24:17;;;;;;;;;30.33;30.00;;;;;26.12;43.13;100891.09;4978824;28;46508;-75
2023/06/08 09:26:45;;;;;;;;;33.67;31.33;;;;;26.00;42.70;100857.63;4983229;28;45265;-75
2023/06/08 09:29:12;;;;;;;;;32.00;29.00;;;;;26.22;42.74;100894.00;4977505;28;45377;-77
2023/06/08 09:31:49;;;;;;;;;32.67;31.00;;;;;26.22;43.01;100896.72;4977880;28;45774;-76
2023/06/08 09:34:15;;;;;;;;;35.00;33.00;;;;;26.22;43.06;100888.56;4978833;28;45296;-74
2023/06/08 09:36:43;;;;;;;;;32.00;30.67;;;;;26.24;42.87;100882.88;4962716;28;45554;-75
2023/06/08 09:39:09;;;;;;;;;34.67;32.33;;;;;26.24;42.71;100888.34;4969528;28;45364;-73
2023/06/08 09:41:38;;;;;;;;;31.67;28.67;;;;;26.16;43.08;100886.81;4975889;28;45524;-73
2023/06/08 09:44:19;;;;;;;;;28.67;28.67;;;;;26.08;42.69;100863.53;4977365;28;45389;-75
2023/06/08 09:46:48;;;;;;;;;29.67;27.33;;;;;26.07;43.07;100861.03;4976747;28;45418;-75
2023/06/08 09:49:15;;;;;;;;;31.00;30.00;;;;;25.94;42.88;100839.53;4974097;28;45511;-77
2023/06/08 09:51:49;;;;;;;;;32.33;31.00;;;;;26.11;42.87;100886.72;4976455;28;45747;-77
2023/06/08 09:54:17;;;;;;;;;32.67;31.67;;;;;26.08;42.50;100884.50;4977529;28;45391;-75
2023/06/08 09:56:52;;;;;;;;;29.33;29.00;;;;;25.44;42.43;100783.78;4975960;28;45376;-76
2023/06/08 09:59:20;;;;;;;;;36.67;33.33;;;;;25.72;42.79;100826.56;4977156;28;45281;-73
2023/06/08 10:01:53;;;;;;;;;29.67;28.67;;;;;26.05;42.95;100874.91;4977613;28;45422;-75
2023/06/08 10:04:21;;;;;;;;;34.00;30.00;;;;;26.10;42.80;100876.91;4977360;28;45490;-76
2023/06/08 10:06:50;;;;;;;;;28.00;28.00;;;;;26.02;42.88;100864.47;4976734;28;45691;-74
2023/06/08 10:09:20;;;;;;;;;30.00;29.00;;;;;26.17;41.86;100866.66;4965058;28;45636;-74
2023/06/08 10:11:46;;;;;;;;;25.00;22.67;;;;;26.14;40.72;100867.16;4958245;28;46693;-74
2023/06/08 10:14:12;;;;;;;;;31.67;31.33;;;;;26.11;41.60;100867.66;4976352;28;45256;-74
2023/06/08 10:16:40;;;;;;;;;23.67;23.67;;;;;26.06;41.79;100852.03;4975122;28;45443;-74
2023/06/08 10:19:06;;;;;;;;;30.00;28.00;;;;;26.09;41.88;100856.16;4959427;28;45274;-76
2023/06/08 10:21:32;;;;;;;;;29.00;27.33;;;;;25.76;41.68;100811.41;4977055;28;46369;-74
2023/06/08 10:23:59;;;;;;;;;32.33;28.67;;;;;25.99;41.89;100861.41;4977167;28;45613;-77
2023/06/08 10:26:24;;;;;;;;;23.33;23.33;;;;;25.67;40.88;100796.53;4959657;28;46782;-75
2023/06/08 10:29:10;;;;;;;;;24.33;23.33;;;;;26.07;40.08;100861.03;4975484;28;45673;-74
2023/06/08 10:31:47;;;;;;;;;26.00;23.67;;;;;25.68;40.72;100798.19;4977301;28;45626;-73
2023/06/08 10:34:14;;;;;;;;;24.00;22.67;;;;;26.03;41.09;100855.25;4965205;28;45532;-74
2023/06/08 10:36:40;;;;;;;;;29.00;27.33;;;;;25.97;41.15;100847.22;4975983;28;45382;-76
2023/06/08 10:39:14;;;;;;;;;25.67;25.00;;;;;25.85;41.46;100836.38;4953332;28;46725;-75
2023/06/08 10:41:53;;;;;;;;;29.67;26.33;;;;;25.89;41.63;100842.97;4974479;28;45746;-77
2023/06/08 10:44:32;;;;;;;;;24.33;23.33;;;;;25.92;40.53;100831.59;4976343;28;45259;-80
2023/06/08 10:47:04;;;;;;;;;21.67;20.67;;;;;25.70;40.71;100793.31;4974620;28;45462;-73
2023/06/08 10:49:38;;;;;;;;;23.67;21.33;;;;;25.90;39.92;100828.28;4976879;28;45552;-74
2023/06/08 10:52:10;;;;;;;;;22.67;22.00;;;;;25.97;39.99;100817.25;4977088;28;46746;-73
2023/06/08 10:55:05;;;;;;;;;30.33;28.00;;;;;25.82;40.78;100792.44;4976013;28;45803;-74
2023/06/08 10:57:50;;;;;;;;;22.00;20.67;;;;;26.00;39.65;100833.91;4958155;28;45399;-76
2023/06/08 11:00:29;;;;;;;;;19.67;19.67;;;;;25.96;38.79;100815.59;4959338;28;45436;-75
2023/06/08 11:02:55;;;;;;;;;27.67;21.67;;;;;25.97;39.17;100814.50;4960794;28;47640;-74
2023/06/08 11:05:23;;;;;;;;;19.67;19.67;;;;;25.95;38.34;100830.28;4975401;28;46210;-74
2023/06/08 11:07:48;;;;;;;;;20.00;20.00;;;;;25.88;38.03;100797.75;4976862;28;45283;-74
2023/06/08 11:10:14;;;;;;;;;21.33;21.33;;;;;25.98;38.82;100797.09;4976681;28;45345;-78